Time;durP1;ratioP1;P1;durP2;ratioP2;P2;SDS_P1;SDS_P2;PMS_P1;PMS_P2;Temp;Humidity;BMP_temperature;BMP_pressure;BME280_temperature;BME280_humidity;BME280_pressure;Samples;Min_cycle;Max_cycle;Signal;HPM_P1;HPM_P2
2022/08/24 00:00:11;;;;;;;25.83;23.08;;;21.20;99.90;;;;;;5060456;28;20045;-63
2022/08/24 00:02:36;;;;;;;28.75;24.42;;;21.10;99.90;;;;;;5039849;28;20044;-62
2022/08/24 00:05:03;;;;;;;23.55;20.75;;;21.00;99.90;;;;;;5064829;28;20036;-63
2022/08/24 00:07:30;;;;;;;25.08;22.13;;;21.10;99.90;;;;;;5068252;28;20104;-62
2022/08/24 00:09:56;;;;;;;23.58;21.17;;;21.10;99.90;;;;;;5073880;28;20036;-62
2022/08/24 00:12:23;;;;;;;24.05;21.42;;;21.10;99.90;;;;;;5073685;28;20033;-63
2022/08/24 00:14:49;;;;;;;25.08;21.10;;;21.20;99.90;;;;;;5073592;28;20063;-62
2022/08/24 00:17:14;;;;;;;23.00;20.67;;;21.20;99.90;;;;;;5066163;28;20525;-63
2022/08/24 00:19:40;;;;;;;23.67;21.27;;;21.20;99.90;;;;;;5059808;28;20069;-63
2022/08/24 00:22:06;;;;;;;23.80;20.90;;;21.20;99.90;;;;;;5073262;28;20119;-62
2022/08/24 00:24:32;;;;;;;23.50;20.33;;;21.20;99.90;;;;;;5058713;28;20028;-62
2022/08/24 00:26:58;;;;;;;23.92;21.40;;;21.20;99.90;;;;;;5068740;28;20119;-62
2022/08/24 00:29:24;;;;;;;25.13;22.52;;;21.20;99.90;;;;;;5065959;28;20045;-62
2022/08/24 00:31:50;;;;;;;23.90;21.40;;;21.30;99.90;;;;;;5068699;28;20051;-62
2022/08/24 00:34:16;;;;;;;23.67;21.23;;;21.30;99.90;;;;;;5063663;28;20449;-62
2022/08/24 00:36:44;;;;;;;23.23;20.75;;;21.30;99.90;;;;;;5070709;28;20050;-62
2022/08/24 00:39:11;;;;;;;23.70;20.75;;;21.30;99.90;;;;;;5060969;28;20052;-62
2022/08/24 00:41:41;;;;;;;25.08;22.60;;;21.20;99.90;;;;;;5073424;28;20036;-62
2022/08/24 00:44:09;;;;;;;27.02;21.95;;;21.20;99.90;;;;;;5072800;28;20036;-62
2022/08/24 00:46:55;;;;;;;23.98;21.48;;;21.20;99.90;;;;;;5071924;28;20106;-62
2022/08/24 00:49:49;;;;;;;26.42;22.20;;;21.20;99.90;;;;;;5050909;28;20053;-63
2022/08/24 00:52:21;;;;;;;23.83;21.33;;;21.20;99.90;;;;;;5068006;28;20127;-62
2022/08/24 00:54:53;;;;;;;25.73;22.67;;;21.10;99.90;;;;;;5063823;28;20274;-62
2022/08/24 00:57:22;;;;;;;26.88;23.98;;;21.10;99.90;;;;;;5070047;28;20036;-62
2022/08/24 00:59:54;;;;;;;26.45;23.73;;;21.00;99.90;;;;;;5073076;28;20040;-62
2022/08/24 01:02:24;;;;;;;26.98;23.95;;;21.00;99.90;;;;;;5072475;28;20115;-62
2022/08/24 01:04:58;;;;;;;25.40;22.83;;;21.00;99.90;;;;;;5072180;28;20047;-62
2022/08/24 01:07:26;;;;;;;26.00;22.50;;;20.90;99.90;;;;;;5066901;28;20032;-62
2022/08/24 01:09:54;;;;;;;23.98;21.55;;;20.90;99.90;;;;;;5072496;28;20488;-64
2022/08/24 01:12:21;;;;;;;25.70;22.92;;;20.90;99.90;;;;;;5072634;28;20049;-62
2022/08/24 01:14:47;;;;;;;26.38;23.58;;;20.90;99.90;;;;;;5071767;28;20513;-63
2022/08/24 01:19:58;;;;;;;24.20;21.63;;;20.90;99.90;;;;;;5063636;28;20033;-63
2022/08/24 01:22:52;;;;;;;24.05;21.75;;;20.90;99.90;;;;;;5066972;28;20040;-62
2022/08/24 01:25:20;;;;;;;23.17;20.77;;;20.80;99.90;;;;;;5072176;28;20060;-62
2022/08/24 01:27:47;;;;;;;24.45;21.95;;;20.80;99.90;;;;;;5061280;28;20055;-62
2022/08/24 01:30:15;;;;;;;24.00;21.60;;;20.80;99.90;;;;;;5071548;28;20418;-62
2022/08/24 01:32:50;;;;;;;24.35;21.85;;;20.70;99.90;;;;;;5071441;28;20480;-62
2022/08/24 01:35:16;;;;;;;24.73;22.13;;;20.70;99.90;;;;;;5067175;28;20045;-63
2022/08/24 01:37:42;;;;;;;24.95;22.45;;;20.60;99.90;;;;;;5052676;28;20052;-63
2022/08/24 01:40:09;;;;;;;24.17;21.67;;;20.50;99.90;;;;;;5068640;28;20102;-62
2022/08/24 01:42:35;;;;;;;24.58;22.17;;;20.50;99.90;;;;;;5071545;28;20113;-62
2022/08/24 01:45:01;;;;;;;24.73;22.27;;;20.50;99.90;;;;;;5070711;28;20059;-62
2022/08/24 01:47:27;;;;;;;23.02;20.65;;;20.40;99.90;;;;;;5064172;28;20336;-62
2022/08/24 01:49:53;;;;;;;24.13;21.08;;;20.40;99.90;;;;;;5064889;28;20040;-62
2022/08/24 01:52:23;;;;;;;24.70;21.30;;;20.40;99.90;;;;;;5071456;28;20453;-62
2022/08/24 01:54:49;;;;;;;23.15;20.65;;;20.40;99.90;;;;;;5071678;28;20051;-62
2022/08/24 01:57:15;;;;;;;23.98;21.17;;;20.40;99.90;;;;;;5069208;28;20328;-62
2022/08/24 01:59:41;;;;;;;23.52;20.23;;;20.30;99.90;;;;;;5071828;28;20025;-62
2022/08/24 02:02:36;;;;;;;23.58;21.15;;;20.30;99.90;;;;;;5071551;28;20036;-62
2022/08/24 02:05:02;;;;;;;24.77;22.17;;;20.30;99.90;;;;;;5062734;28;20481;-63
2022/08/24 02:07:31;;;;;;;23.55;21.17;;;20.20;99.90;;;;;;5067388;28;20032;-62
2022/08/24 02:09:57;;;;;;;24.70;22.08;;;20.10;99.90;;;;;;5071739;28;20048;-63
2022/08/24 02:12:23;;;;;;;24.02;21.58;;;20.10;99.90;;;;;;5071428;28;20052;-62
2022/08/24 02:14:50;;;;;;;24.23;21.83;;;20.00;99.90;;;;;;5071436;28;20033;-62
2022/08/24 02:17:17;;;;;;;24.52;21.88;;;20.00;99.90;;;;;;5064342;28;20045;-62
2022/08/24 02:19:42;;;;;;;24.17;21.67;;;20.00;99.90;;;;;;5064774;28;20032;-63
2022/08/24 02:22:08;;;;;;;23.17;20.77;;;20.00;99.90;;;;;;5063833;28;20067;-62
2022/08/24 02:24:34;;;;;;;23.30;20.88;;;20.00;99.90;;;;;;5070330;28;20072;-62
2022/08/24 02:27:00;;;;;;;24.70;21.75;;;19.90;99.90;;;;;;5067511;28;20080;-62
2022/08/24 02:29:26;;;;;;;24.05;21.65;;;20.00;99.90;;;;;;5063890;28;20119;-62
2022/08/24 02:31:51;;;;;;;23.85;21.55;;;19.90;99.90;;;;;;5071020;28;20369;-63
2022/08/24 02:34:17;;;;;;;24.08;21.52;;;19.90;99.90;;;;;;5070765;28;20051;-63
2022/08/24 02:36:43;;;;;;;24.63;22.15;;;19.80;99.90;;;;;;5052978;28;20049;-63
2022/08/24 02:39:09;;;;;;;25.05;22.63;;;19.80;99.90;;;;;;5059738;28;20044;-62
2022/08/24 02:41:36;;;;;;;25.58;22.90;;;19.80;99.90;;;;;;5071118;28;20040;-62
2022/08/24 02:44:02;;;;;;;24.05;21.73;;;19.80;99.90;;;;;;5071164;28;20032;-63
2022/08/24 02:46:29;;;;;;;24.60;22.02;;;19.80;99.90;;;;;;5070909;28;20275;-62
2022/08/24 02:48:58;;;;;;;26.20;23.50;;;19.80;99.90;;;;;;5056538;28;20404;-61
2022/08/24 02:51:26;;;;;;;26.58;23.95;;;19.80;99.90;;;;;;5071142;28;20151;-62
2022/08/24 02:53:52;;;;;;;23.35;20.98;;;19.80;99.90;;;;;;5070617;28;20037;-63
2022/08/24 02:56:19;;;;;;;26.45;23.85;;;19.70;99.90;;;;;;5071552;28;20419;-62
2022/08/24 02:58:46;;;;;;;25.08;22.58;;;19.70;99.90;;;;;;5054788;28;20041;-63
2022/08/24 03:01:12;;;;;;;28.60;25.17;;;19.70;99.90;;;;;;5070942;28;20170;-62
2022/08/24 03:03:38;;;;;;;28.80;25.80;;;19.70;99.90;;;;;;5070470;28;20116;-62
2022/08/24 03:06:05;;;;;;;27.58;24.98;;;19.70;99.90;;;;;;5071084;28;20199;-63
2022/08/24 03:08:31;;;;;;;29.75;25.98;;;19.70;99.90;;;;;;5067242;28;20087;-62
2022/08/24 03:10:59;;;;;;;29.90;26.90;;;19.70;99.90;;;;;;5070715;28;20080;-63
2022/08/24 03:13:26;;;;;;;28.98;26.02;;;19.70;99.90;;;;;;5069523;28;20040;-63
2022/08/24 03:15:54;;;;;;;30.50;27.60;;;19.70;99.90;;;;;;5069565;28;20048;-64
2022/08/24 03:18:20;;;;;;;29.10;26.23;;;19.60;99.90;;;;;;5065861;28;20032;-62
2022/08/24 03:20:46;;;;;;;31.58;28.45;;;19.70;99.90;;;;;;5056694;28;20052;-62
2022/08/24 03:23:12;;;;;;;29.55;26.48;;;19.70;99.90;;;;;;5070472;28;20033;-62
2022/08/24 03:25:37;;;;;;;29.67;26.85;;;19.70;99.90;;;;;;5070156;28;20059;-62
2022/08/24 03:28:03;;;;;;;31.92;28.23;;;19.70;99.90;;;;;;5056013;28;20138;-62
2022/08/24 03:30:29;;;;;;;29.10;26.13;;;19.60;99.90;;;;;;5069395;28;20119;-62
2022/08/24 03:32:54;;;;;;;30.55;27.65;;;19.60;99.90;;;;;;5070118;28;20072;-62
2022/08/24 03:35:21;;;;;;;30.20;27.20;;;19.60;99.90;;;;;;5070631;28;20610;-62
2022/08/24 03:37:48;;;;;;;30.25;27.08;;;19.60;99.90;;;;;;5060756;28;20041;-62
2022/08/24 03:40:14;;;;;;;33.45;28.25;;;19.60;99.90;;;;;;5067958;28;20051;-62
2022/08/24 03:42:39;;;;;;;29.73;26.83;;;19.60;99.90;;;;;;5073853;28;20076;-62
2022/08/24 03:45:06;;;;;;;33.08;29.65;;;19.60;99.90;;;;;;5072159;28;20131;-62
2022/08/24 03:47:32;;;;;;;29.23;26.52;;;19.60;99.90;;;;;;5054330;28;20124;-62
2022/08/24 03:49:58;;;;;;;31.65;28.30;;;19.60;99.90;;;;;;5068098;28;20136;-62
2022/08/24 03:52:23;;;;;;;33.63;30.23;;;19.60;99.90;;;;;;5072284;28;20114;-62
2022/08/24 03:54:49;;;;;;;34.85;31.27;;;19.60;99.90;;;;;;5074302;28;20104;-62
2022/08/24 03:57:15;;;;;;;34.67;31.17;;;19.60;99.90;;;;;;5072001;28;20508;-63
2022/08/24 03:59:40;;;;;;;32.83;29.67;;;19.50;99.90;;;;;;5074065;28;20105;-62
2022/08/24 04:02:06;;;;;;;33.88;30.23;;;19.40;99.90;;;;;;5073788;28;20066;-62
2022/08/24 04:04:32;;;;;;;31.15;28.02;;;19.50;99.90;;;;;;5073651;28;20046;-62
2022/08/24 04:06:58;;;;;;;34.03;30.58;;;19.40;99.90;;;;;;5070891;28;20040;-63
2022/08/24 04:09:24;;;;;;;33.70;30.23;;;19.40;99.90;;;;;;5073537;28;20124;-62
2022/08/24 04:11:49;;;;;;;33.17;30.08;;;19.30;99.90;;;;;;5073866;28;20116;-62
2022/08/24 04:14:16;;;;;;;35.88;32.28;;;19.30;99.90;;;;;;5073354;28;20090;-62
2022/08/24 04:16:44;;;;;;;35.17;31.58;;;19.30;99.90;;;;;;5073216;28;20083;-62
2022/08/24 04:19:10;;;;;;;35.58;31.83;;;19.20;99.90;;;;;;5069422;28;20040;-62
2022/08/24 04:21:36;;;;;;;37.00;33.00;;;19.20;99.90;;;;;;5073728;28;20048;-63
2022/08/24 04:24:04;;;;;;;34.35;30.92;;;19.20;99.90;;;;;;5072923;28;20347;-62
2022/08/24 04:26:31;;;;;;;32.70;29.33;;;19.20;99.90;;;;;;5072988;28;20053;-63
2022/08/24 04:28:58;;;;;;;33.20;29.80;;;19.30;99.90;;;;;;5063368;28;20032;-63
2022/08/24 04:31:24;;;;;;;32.65;29.27;;;19.30;99.90;;;;;;5073291;28;20106;-62
2022/08/24 04:33:51;;;;;;;33.45;28.52;;;19.30;99.90;;;;;;5073192;28;20051;-62
2022/08/24 04:36:19;;;;;;;31.65;28.40;;;19.30;99.90;;;;;;5073822;28;20040;-62
2022/08/24 04:38:46;;;;;;;32.40;29.05;;;19.30;99.90;;;;;;5061063;28;20170;-62
2022/08/24 04:41:14;;;;;;;32.88;29.67;;;19.30;99.90;;;;;;5073372;28;20049;-62
2022/08/24 04:43:44;;;;;;;32.78;29.67;;;19.30;99.90;;;;;;5072329;28;20072;-62
2022/08/24 04:46:11;;;;;;;34.75;31.35;;;19.40;99.90;;;;;;5073082;28;20044;-62
2022/08/24 04:48:37;;;;;;;36.42;32.70;;;19.40;99.90;;;;;;5059680;28;20041;-62
2022/08/24 04:51:05;;;;;;;37.70;33.90;;;19.40;99.90;;;;;;5072822;28;20106;-62
2022/08/24 04:53:31;;;;;;;38.15;34.10;;;19.40;99.90;;;;;;5072460;28;20055;-62
2022/08/24 04:55:57;;;;;;;36.40;32.75;;;19.30;99.90;;;;;;5072684;28;20464;-62
2022/08/24 04:58:23;;;;;;;38.38;34.45;;;19.30;99.90;;;;;;5058868;28;20048;-62
2022/08/24 05:00:48;;;;;;;36.38;32.38;;;19.40;99.90;;;;;;5071765;28;20032;-62
2022/08/24 05:03:14;;;;;;;36.88;33.10;;;19.40;99.90;;;;;;5072352;28;20044;-62
2022/08/24 05:05:45;;;;;;;37.97;34.08;;;19.40;99.90;;;;;;5072618;28;20052;-63
2022/08/24 05:08:13;;;;;;;38.33;34.38;;;19.40;99.90;;;;;;5069976;28;20067;-63
2022/08/24 05:10:43;;;;;;;39.85;35.60;;;19.50;99.90;;;;;;5072404;28;20040;-62
2022/08/24 05:13:10;;;;;;;38.40;34.33;;;19.50;99.90;;;;;;5072229;28;20043;-63
2022/08/24 05:15:42;;;;;;;39.95;34.65;;;19.60;99.90;;;;;;5072371;28;20032;-63
2022/08/24 05:18:09;;;;;;;36.67;33.03;;;19.60;99.90;;;;;;5068330;28;20033;-63
2022/08/24 05:20:38;;;;;;;36.92;32.35;;;19.60;99.90;;;;;;5072454;28;20052;-62
2022/08/24 05:23:04;;;;;;;34.22;30.67;;;19.70;99.90;;;;;;5071548;28;20420;-62
2022/08/24 05:25:29;;;;;;;33.78;30.33;;;19.70;99.90;;;;;;5067770;28;20127;-64
2022/08/24 05:27:55;;;;;;;33.28;29.73;;;19.70;99.90;;;;;;5062553;28;20043;-63
2022/08/24 05:30:20;;;;;;;31.58;28.23;;;19.80;99.90;;;;;;5072475;28;20343;-63
2022/08/24 05:32:48;;;;;;;33.78;30.15;;;19.80;99.90;;;;;;5071950;28;20344;-63
2022/08/24 05:35:13;;;;;;;35.20;31.60;;;19.90;99.90;;;;;;5072323;28;20386;-63
2022/08/24 05:37:39;;;;;;;37.63;33.63;;;20.10;99.90;;;;;;5062868;28;20132;-64
2022/08/24 05:40:08;;;;;;;36.92;33.03;;;20.20;99.90;;;;;;5066008;28;20150;-63
2022/08/24 05:42:34;;;;;;;36.78;32.97;;;20.40;99.90;;;;;;5051593;28;20089;-64
2022/08/24 05:45:00;;;;;;;36.63;32.90;;;20.80;99.90;;;;;;5065828;28;20048;-64
2022/08/24 05:47:26;;;;;;;34.13;30.42;;;21.40;99.90;;;;;;5064737;28;20079;-63
2022/08/24 05:49:52;;;;;;;36.47;31.27;;;22.10;99.90;;;;;;5063677;28;20052;-64
2022/08/24 05:52:20;;;;;;;35.00;31.13;;;22.80;99.90;;;;;;5066327;28;20045;-63
2022/08/24 05:54:51;;;;;;;32.97;29.65;;;23.40;99.90;;;;;;5063453;28;20040;-63
2022/08/24 05:57:17;;;;;;;32.95;29.23;;;23.90;99.90;;;;;;5067041;28;20617;-63
2022/08/24 05:59:43;;;;;;;32.70;29.42;;;24.50;99.90;;;;;;5062151;28;20049;-64
2022/08/24 06:02:08;;;;;;;31.38;28.02;;;25.00;99.90;;;;;;5070135;28;20110;-62
2022/08/24 06:04:36;;;;;;;30.27;27.05;;;25.40;99.90;;;;;;5070778;28;20115;-63
2022/08/24 06:07:03;;;;;;;31.10;27.80;;;25.90;99.90;;;;;;5069200;28;20133;-63
2022/08/24 06:09:28;;;;;;;31.00;27.80;;;26.20;99.90;;;;;;5071694;28;20037;-63
2022/08/24 06:11:54;;;;;;;28.95;25.95;;;26.40;99.90;;;;;;5071599;28;20044;-62
2022/08/24 06:14:20;;;;;;;31.80;27.38;;;26.50;99.90;;;;;;5071211;28;20542;-64
2022/08/24 06:16:47;;;;;;;29.38;26.23;;;26.90;99.90;;;;;;5071498;28;20040;-63
2022/08/24 06:19:17;;;;;;;27.30;24.52;;;27.00;99.90;;;;;;5067641;28;20155;-64
2022/08/24 06:21:45;;;;;;;29.63;26.60;;;27.20;99.90;;;;;;5071594;28;20514;-64
2022/08/24 06:24:11;;;;;;;27.73;24.88;;;27.40;99.90;;;;;;5069877;28;20048;-64
2022/08/24 06:29:21;;;;;;;27.83;25.02;;;27.60;99.90;;;;;;5055855;28;20044;-64
2022/08/24 06:31:47;;;;;;;26.63;23.95;;;27.60;99.90;;;;;;5071205;28;20124;-64
2022/08/24 06:34:16;;;;;;;26.75;22.92;;;27.70;99.90;;;;;;5070867;28;20120;-63
2022/08/24 06:36:42;;;;;;;25.00;22.60;;;27.80;99.90;;;;;;5069518;28;20449;-64
2022/08/24 06:39:08;;;;;;;24.17;21.77;;;27.90;99.90;;;;;;5059712;28;20036;-64
2022/08/24 06:41:35;;;;;;;24.83;22.25;;;28.10;99.90;;;;;;5069852;28;20115;-63
2022/08/24 06:44:01;;;;;;;24.73;22.35;;;28.20;99.90;;;;;;5070459;28;20466;-63
2022/08/24 06:46:27;;;;;;;23.63;21.17;;;28.30;99.90;;;;;;5071004;28;20044;-63
2022/08/24 06:48:53;;;;;;;23.52;21.25;;;28.20;99.90;;;;;;5058397;28;20058;-63
2022/08/24 06:51:21;;;;;;;24.08;21.63;;;28.10;99.90;;;;;;5071242;28;20040;-63
2022/08/24 06:53:48;;;;;;;21.33;19.17;;;28.10;99.90;;;;;;5070168;28;20611;-63
2022/08/24 06:56:13;;;;;;;23.05;20.73;;;28.20;99.90;;;;;;5071084;28;20045;-63
2022/08/24 06:58:39;;;;;;;24.50;22.17;;;28.30;99.90;;;;;;5056202;28;20063;-64
2022/08/24 07:01:14;;;;;;;24.15;21.85;;;28.30;99.90;;;;;;5069727;28;20036;-64
2022/08/24 07:03:40;;;;;;;23.88;21.52;;;28.30;99.90;;;;;;5070564;28;20040;-64
2022/08/24 07:06:07;;;;;;;23.23;20.85;;;28.20;99.90;;;;;;5070862;28;20036;-64
2022/08/24 07:08:33;;;;;;;22.17;19.92;;;28.20;99.90;;;;;;5068300;28;20045;-63
2022/08/24 07:10:59;;;;;;;22.02;19.98;;;28.30;99.90;;;;;;5070548;28;20049;-64
2022/08/24 07:13:25;;;;;;;19.98;18.00;;;28.30;99.90;;;;;;5070411;28;20144;-63
2022/08/24 07:15:51;;;;;;;24.33;20.40;;;28.30;99.90;;;;;;5072448;28;20526;-63
2022/08/24 07:18:19;;;;;;;23.80;19.63;;;28.40;99.90;;;;;;5062614;28;20354;-64
2022/08/24 07:20:46;;;;;;;20.73;18.60;;;28.30;99.90;;;;;;5069915;28;20312;-63
2022/08/24 07:23:13;;;;;;;19.95;17.40;;;28.20;99.90;;;;;;5073773;28;20469;-65
2022/08/24 07:25:40;;;;;;;18.77;16.98;;;28.10;99.90;;;;;;5074076;28;20061;-64
2022/08/24 07:28:07;;;;;;;19.40;17.40;;;27.90;99.90;;;;;;5065511;28;20350;-63
2022/08/24 07:30:33;;;;;;;19.95;17.98;;;27.70;99.90;;;;;;5074234;28;20044;-64
2022/08/24 07:32:59;;;;;;;18.92;17.13;;;27.60;99.90;;;;;;5073985;28;20047;-63
2022/08/24 07:35:27;;;;;;;23.33;17.88;;;27.30;99.90;;;;;;5060294;28;20043;-63
2022/08/24 07:37:54;;;;;;;19.80;17.80;;;27.30;99.90;;;;;;5065509;28;20036;-63
2022/08/24 07:40:20;;;;;;;20.60;18.60;;;27.30;99.90;;;;;;5072480;28;20098;-63
2022/08/24 07:42:47;;;;;;;20.77;18.20;;;27.20;99.90;;;;;;5063116;28;20033;-65
2022/08/24 07:45:13;;;;;;;18.10;16.23;;;27.20;99.90;;;;;;5070601;28;20557;-64
2022/08/24 07:47:39;;;;;;;21.40;18.85;;;27.30;99.90;;;;;;5067467;28;20068;-64
2022/08/24 07:50:05;;;;;;;19.75;17.83;;;27.30;99.90;;;;;;5068627;28;20133;-64
2022/08/24 07:52:31;;;;;;;21.33;19.33;;;27.40;99.90;;;;;;5073414;28;20109;-64
2022/08/24 07:54:57;;;;;;;21.27;16.65;;;27.40;99.90;;;;;;5074131;28;20058;-63
2022/08/24 07:57:23;;;;;;;17.95;16.17;;;27.20;99.90;;;;;;5055768;28;20033;-63
2022/08/24 07:59:49;;;;;;;19.20;17.27;;;27.20;99.90;;;;;;5064705;28;20036;-63
2022/08/24 08:02:15;;;;;;;19.08;17.15;;;27.20;99.90;;;;;;5059351;28;20045;-64
2022/08/24 08:04:41;;;;;;;19.20;16.83;;;27.20;99.90;;;;;;5073898;28;20055;-64
2022/08/24 08:07:07;;;;;;;18.10;16.30;;;27.20;99.90;;;;;;5071281;28;20048;-64
2022/08/24 08:09:36;;;;;;;18.40;14.85;;;27.10;99.90;;;;;;5060620;28;20111;-63
2022/08/24 08:12:01;;;;;;;17.58;12.55;;;27.10;99.90;;;;;;5073067;28;20481;-63
2022/08/24 08:14:27;;;;;;;15.50;13.15;;;27.00;99.90;;;;;;5073462;28;20115;-63
2022/08/24 08:16:53;;;;;;;14.65;12.85;;;27.20;99.90;;;;;;5073670;28;20032;-63
2022/08/24 08:19:18;;;;;;;16.90;12.35;;;27.20;99.90;;;;;;5070418;28;20124;-63
2022/08/24 08:24:36;;;;;;;13.73;10.77;;;27.30;99.90;;;;;;5059282;28;20037;-64
2022/08/24 08:27:01;;;;;;;12.45;10.27;;;27.30;99.90;;;;;;5071868;28;20067;-64
2022/08/24 08:29:31;;;;;;;12.52;10.70;;;27.50;99.90;;;;;;5059284;28;20086;-64
2022/08/24 08:31:57;;;;;;;14.32;10.48;;;27.60;99.90;;;;;;5072564;28;20128;-64
2022/08/24 08:34:23;;;;;;;13.85;10.65;;;27.70;99.90;;;;;;5073312;28;20484;-63
2022/08/24 08:36:49;;;;;;;12.18;10.02;;;27.80;99.90;;;;;;5072973;28;20115;-63
2022/08/24 08:39:17;;;;;;;13.98;9.18;;;28.00;99.90;;;;;;5063171;28;20123;-64
2022/08/24 08:42:13;;;;;;;11.63;9.55;;;28.10;99.90;;;;;;5071438;28;20373;-64
2022/08/24 08:45:02;;;;;;;13.98;9.50;;;28.10;99.90;;;;;;5053202;28;20052;-63
2022/08/24 08:48:09;;;;;;;10.13;7.35;;;28.00;99.90;;;;;;5042838;28;20350;-63
2022/08/24 08:50:54;;;;;;;13.07;7.75;;;28.20;99.90;;;;;;5071405;28;20051;-64
2022/08/24 08:53:46;;;;;;;12.80;8.80;;;28.20;99.90;;;;;;5072469;28;20150;-63
2022/08/24 08:56:33;;;;;;;9.63;6.55;;;28.30;99.90;;;;;;5072651;28;20449;-64
2022/08/24 08:59:16;;;;;;;7.43;5.50;;;28.40;99.90;;;;;;5058547;28;20032;-63
2022/08/24 09:01:50;;;;;;;9.30;6.10;;;28.50;99.90;;;;;;5060555;28;20056;-64
2022/08/24 09:04:37;;;;;;;9.95;6.82;;;28.50;99.90;;;;;;5071982;28;20343;-64
2022/08/24 09:07:33;;;;;;;9.63;6.95;;;28.30;99.90;;;;;;5071927;28;20049;-64
2022/08/24 09:10:23;;;;;;;7.60;5.20;;;28.20;99.90;;;;;;5053617;28;20044;-64
2022/08/24 09:13:27;;;;;;;6.38;5.45;;;28.20;99.90;;;;;;5072260;28;20037;-64
2022/08/24 09:15:52;;;;;;;10.77;6.75;;;28.10;99.90;;;;;;5072346;28;20497;-63
2022/08/24 09:18:36;;;;;;;8.90;6.95;;;28.00;99.90;;;;;;5070427;28;20040;-63
2022/08/24 09:21:02;;;;;;;8.75;5.45;;;27.90;99.90;;;;;;5072404;28;20094;-64
2022/08/24 09:23:43;;;;;;;7.38;5.65;;;27.90;99.90;;;;;;5071887;28;20048;-64
2022/08/24 09:26:28;;;;;;;6.88;4.75;;;28.20;99.90;;;;;;5071892;28;20056;-64
2022/08/24 09:28:59;;;;;;;8.40;4.55;;;28.30;99.90;;;;;;5064450;28;20036;-64
2022/08/24 09:31:31;;;;;;;8.43;5.25;;;28.60;99.90;;;;;;5058038;28;20108;-64
2022/08/24 09:34:07;;;;;;;8.00;6.13;;;28.50;99.90;;;;;;5064123;28;20120;-64
2022/08/24 09:36:59;;;;;;;8.45;5.43;;;28.40;99.90;;;;;;5067588;28;20072;-64
2022/08/24 09:39:35;;;;;;;9.88;5.93;;;28.40;99.90;;;;;;5061531;28;20473;-64
2022/08/24 09:42:21;;;;;;;9.32;5.95;;;28.40;99.90;;;;;;5071658;28;20052;-64
2022/08/24 09:45:04;;;;;;;7.90;5.15;;;28.60;99.90;;;;;;5072157;28;20044;-64
2022/08/24 09:48:08;;;;;;;7.38;4.95;;;28.60;99.90;;;;;;5067785;28;20083;-65
2022/08/24 09:50:52;;;;;;;9.57;6.97;;;28.70;99.90;;;;;;5070550;28;20062;-64
2022/08/24 09:53:26;;;;;;;8.30;6.82;;;28.60;99.90;;;;;;5071839;28;20051;-65
2022/08/24 09:56:18;;;;;;;11.07;6.65;;;28.80;99.90;;;;;;5044510;28;20097;-64
2022/08/24 09:59:11;;;;;;;8.57;6.20;;;28.90;99.90;;;;;;5059073;28;20033;-64
2022/08/24 10:01:47;;;;;;;8.25;4.90;;;29.00;99.90;;;;;;5071892;28;20040;-64
2022/08/24 10:04:36;;;;;;;9.77;6.05;;;29.10;99.90;;;;;;5071342;28;20055;-64
2022/08/24 10:07:17;;;;;;;7.90;4.72;;;29.20;99.90;;;;;;5070956;28;20524;-65
2022/08/24 10:09:42;;;;;;;8.60;5.18;;;29.40;99.90;;;;;;5048279;28;20134;-64
2022/08/24 10:12:32;;;;;;;8.25;5.90;;;29.30;99.90;;;;;;5071080;28;20083;-64
2022/08/24 10:15:13;;;;;;;6.18;4.97;;;29.30;99.90;;;;;;5071634;28;20042;-66
2022/08/24 10:18:03;;;;;;;7.88;5.00;;;29.20;99.90;;;;;;5069599;28;20122;-64
2022/08/24 10:21:16;;;;;;;7.28;4.60;;;29.30;99.90;;;;;;5071636;28;20032;-64
2022/08/24 10:24:03;;;;;;;7.93;4.82;;;29.50;99.90;;;;;;5060716;28;20372;-65
2022/08/24 10:27:09;;;;;;;6.18;4.72;;;29.60;99.90;;;;;;5071019;28;20309;-64
2022/08/24 10:30:03;;;;;;;6.68;4.80;;;29.60;99.90;;;;;;5065238;28;20065;-64
2022/08/24 10:32:46;;;;;;;8.07;4.53;;;29.50;99.80;;;;;;5062641;28;20056;-64
2022/08/24 10:35:16;;;;;;;5.65;3.50;;;29.40;99.90;;;;;;5070773;28;20097;-64
2022/08/24 10:41:21;;;;;;;8.45;5.20;;;29.50;99.90;;;;;;5048797;28;20064;-65
2022/08/24 10:43:56;;;;;;;5.28;3.65;;;29.60;99.90;;;;;;5066312;28;20091;-63
2022/08/24 10:46:39;;;;;;;6.55;3.97;;;29.90;99.90;;;;;;5063468;28;20365;-64
2022/08/24 10:49:24;;;;;;;6.57;4.05;;;30.10;99.70;;;;;;5061134;28;20117;-63
2022/08/24 10:52:08;;;;;;;6.40;3.60;;;30.20;99.30;;;;;;5074819;28;20040;-64
2022/08/24 10:54:35;;;;;;;6.45;3.30;;;30.00;99.40;;;;;;5075345;28;20047;-63
2022/08/24 10:57:14;;;;;;;7.15;3.92;;;30.10;99.50;;;;;;5060957;28;20063;-63
2022/08/24 10:59:51;;;;;;;4.45;2.63;;;30.10;99.20;;;;;;5053231;28;20079;-65
2022/08/24 11:02:30;;;;;;;3.72;2.90;;;30.10;99.40;;;;;;5074661;28;20071;-63
2022/08/24 11:04:58;;;;;;;5.85;3.22;;;30.20;99.50;;;;;;5075152;28;20124;-64
2022/08/24 11:07:24;;;;;;;4.03;2.58;;;30.30;99.20;;;;;;5071962;28;20044;-63
2022/08/24 11:09:57;;;;;;;5.93;2.75;;;30.30;98.90;;;;;;5064499;28;20098;-64
2022/08/24 11:12:40;;;;;;;;;;;30.40;99.00;;;;;;5072601;28;20481;-61
2022/08/24 11:15:17;;;;;;;4.22;3.30;;;30.50;98.70;;;;;;5065566;28;19917;-64
2022/08/24 11:17:54;;;;;;;6.57;3.50;;;30.60;98.80;;;;;;5069100;28;20115;-63
2022/08/24 11:20:39;;;;;;;4.55;3.25;;;30.50;98.80;;;;;;5066714;28;20040;-64
2022/08/24 11:23:06;;;;;;;5.45;3.42;;;30.50;99.10;;;;;;5074228;28;20048;-64
2022/08/24 11:25:36;;;;;;;5.78;2.67;;;30.30;99.00;;;;;;5074296;28;20063;-62
2022/08/24 11:28:24;;;;;;;3.80;2.67;;;30.50;98.90;;;;;;5067840;28;20041;-64
2022/08/24 11:30:50;;;;;;;5.63;2.70;;;30.50;98.80;;;;;;5070259;28;20500;-64
2022/08/24 11:33:45;;;;;;;7.00;3.00;;;30.60;98.70;;;;;;5074166;28;20032;-61
2022/08/24 11:36:20;;;;;;;3.72;2.67;;;30.60;98.50;;;;;;5074506;28;20541;-64
2022/08/24 11:38:46;;;;;;;4.53;2.42;;;30.70;98.50;;;;;;5065636;28;20043;-64
2022/08/24 11:41:24;;;;;;;6.97;2.75;;;30.80;98.40;;;;;;5074403;28;20048;-64
2022/08/24 11:44:04;;;;;;;5.63;2.60;;;31.00;98.50;;;;;;5073792;28;20442;-65
2022/08/24 11:46:33;;;;;;;3.58;2.10;;;31.10;98.10;;;;;;5074511;28;20186;-64
2022/08/24 11:49:24;;;;;;;5.07;3.28;;;31.30;97.70;;;;;;5063604;28;20366;-63
2022/08/24 11:52:09;;;;;;;4.57;2.58;;;31.10;97.80;;;;;;5073760;28;20044;-64
2022/08/24 11:54:47;;;;;;;4.25;2.13;;;31.00;98.00;;;;;;5074251;28;20047;-63
2022/08/24 11:57:37;;;;;;;4.05;2.30;;;30.80;97.90;;;;;;5072757;28;20453;-63
2022/08/24 12:00:14;;;;;;;5.68;2.60;;;31.00;97.90;;;;;;5059429;28;20478;-64
2022/08/24 12:03:04;;;;;;;4.88;2.10;;;31.00;97.80;;;;;;5072947;28;20111;-63
2022/08/24 12:05:42;;;;;;;3.97;2.40;;;30.90;97.50;;;;;;5073959;28;20050;-63
2022/08/24 12:08:26;;;;;;;3.75;2.00;;;30.90;97.70;;;;;;5065420;28;20032;-63
2022/08/24 12:11:25;;;;;;;2.15;1.50;;;31.00;97.80;;;;;;5071369;28;20468;-63
2022/08/24 12:13:59;;;;;;;4.65;1.83;;;31.00;97.30;;;;;;5073544;28;20064;-64
2022/08/24 12:16:35;;;;;;;3.85;1.45;;;31.10;97.50;;;;;;5073801;28;20041;-64
2022/08/24 12:19:30;;;;;;;1.38;1.27;;;31.30;97.00;;;;;;5058682;28;20037;-63
2022/08/24 12:22:00;;;;;;;1.42;1.23;;;31.40;95.90;;;;;;5071167;28;20063;-64
2022/08/24 12:24:37;;;;;;;5.18;2.10;;;31.30;96.60;;;;;;5073616;28;20059;-64
2022/08/24 12:27:10;;;;;;;4.88;2.20;;;31.40;96.40;;;;;;5073178;28;20348;-62
2022/08/24 12:29:43;;;;;;;4.15;2.35;;;31.40;97.20;;;;;;5067259;28;20048;-62
2022/08/24 12:32:24;;;;;;;4.07;2.08;;;31.50;97.20;;;;;;5073025;28;20048;-62
2022/08/24 12:34:55;;;;;;;3.88;1.83;;;31.40;97.20;;;;;;5073502;28;20033;-62
2022/08/24 12:37:48;;;;;;;3.33;2.00;;;31.20;96.90;;;;;;5071324;28;20117;-62
2022/08/24 12:40:34;;;;;;;4.57;2.30;;;31.20;96.90;;;;;;5070822;28;20093;-62
2022/08/24 12:43:13;;;;;;;3.00;1.70;;;31.30;97.10;;;;;;5072936;28;20109;-62
2022/08/24 12:45:40;;;;;;;3.38;1.70;;;31.50;96.70;;;;;;5073417;28;20040;-62
2022/08/24 12:48:30;;;;;;;2.58;2.05;;;31.60;96.60;;;;;;5065403;28;20140;-62
2022/08/24 12:51:24;;;;;;;5.38;2.20;;;31.50;96.80;;;;;;5048098;28;20415;-62
2022/08/24 12:54:21;;;;;;;4.97;1.85;;;31.40;96.90;;;;;;5072535;28;20028;-63
2022/08/24 12:57:14;;;;;;;3.20;1.98;;;31.60;96.70;;;;;;5073051;28;20040;-63
2022/08/24 12:59:40;;;;;;;;;;;31.60;96.20;;;;;;5062180;28;20055;-63
2022/08/24 13:02:17;;;;;;;3.53;1.80;;;31.70;96.60;;;;;;5072465;28;20269;-63
2022/08/24 13:04:49;;;;;;;3.28;1.88;;;31.70;96.60;;;;;;5072931;28;20095;-63
2022/08/24 13:07:18;;;;;;;2.97;1.43;;;31.80;96.30;;;;;;5057682;28;20094;-63